Time;durP1;ratioP1;P1;durP2;ratioP2;P2;SDS_P1;SDS_P2;PMS_P1;PMS_P2;Temp;Humidity;BMP_temperature;BMP_pressure;BME280_temperature;BME280_humidity;BME280_pressure;Samples;Min_cycle;Max_cycle;Signal;HPM_P1;HPM_P2
2023/12/21 00:01:36;;;;;;;1.70;0.77;;;6.20;99.90;;;;;;5096031;28;20023;-80
2023/12/21 00:04:03;;;;;;;5.27;0.90;;;6.20;99.90;;;;;;5095655;28;20028;-80
2023/12/21 00:06:30;;;;;;;1.70;0.70;;;6.10;99.90;;;;;;5114359;28;20019;-79
2023/12/21 00:08:55;;;;;;;1.10;0.80;;;6.10;99.90;;;;;;5113632;28;20050;-79
2023/12/21 00:11:21;;;;;;;1.73;0.80;;;6.10;99.90;;;;;;5095963;28;20027;-79
2023/12/21 00:13:47;;;;;;;1.53;0.60;;;6.10;99.90;;;;;;5113683;28;20035;-80
2023/12/21 00:16:13;;;;;;;2.47;0.90;;;6.00;99.90;;;;;;5114033;28;20031;-79
2023/12/21 00:18:39;;;;;;;1.40;0.70;;;6.10;99.90;;;;;;5095474;28;20031;-81
2023/12/21 00:21:06;;;;;;;5.23;0.83;;;6.00;99.90;;;;;;5113948;28;20031;-80
2023/12/21 00:23:31;;;;;;;2.33;0.70;;;6.00;99.90;;;;;;5096085;28;20026;-80
2023/12/21 00:25:57;;;;;;;3.73;0.97;;;6.00;99.90;;;;;;5113520;28;20020;-80
2023/12/21 00:28:23;;;;;;;2.50;0.70;;;6.10;99.90;;;;;;5095876;28;20490;-79
2023/12/21 00:30:48;;;;;;;0.93;0.70;;;6.10;99.90;;;;;;5095503;28;20019;-80
2023/12/21 00:33:14;;;;;;;3.03;0.70;;;6.10;99.90;;;;;;5095783;28;20116;-80
2023/12/21 00:35:40;;;;;;;1.70;0.73;;;6.10;99.90;;;;;;5116519;28;20030;-80
2023/12/21 00:38:05;;;;;;;3.20;0.80;;;6.10;99.90;;;;;;5099914;28;20027;-80
2023/12/21 00:40:31;;;;;;;2.17;0.70;;;6.10;99.90;;;;;;5100034;28;20096;-79
2023/12/21 00:42:57;;;;;;;2.53;0.70;;;6.10;99.90;;;;;;5099569;28;20035;-79
2023/12/21 00:45:23;;;;;;;2.10;0.67;;;6.10;99.90;;;;;;5100146;28;20098;-80
2023/12/21 00:47:49;;;;;;;3.23;0.97;;;6.10;99.90;;;;;;5099506;28;20032;-80
2023/12/21 00:50:15;;;;;;;3.57;0.80;;;6.10;99.90;;;;;;5117849;28;20501;-80
2023/12/21 00:52:41;;;;;;;1.57;0.67;;;6.10;99.90;;;;;;5099854;28;20034;-79
2023/12/21 00:55:07;;;;;;;1.73;0.90;;;6.10;99.90;;;;;;5099106;28;20115;-79
2023/12/21 00:57:33;;;;;;;2.43;0.60;;;6.10;99.90;;;;;;5099479;28;20028;-79
2023/12/21 00:59:58;;;;;;;2.00;0.60;;;6.10;99.90;;;;;;5099345;28;20369;-80
2023/12/21 01:02:24;;;;;;;1.60;0.60;;;6.10;99.90;;;;;;5117811;28;20100;-79
2023/12/21 01:04:49;;;;;;;2.63;0.90;;;6.10;99.90;;;;;;5098991;28;20114;-79
2023/12/21 01:07:15;;;;;;;1.87;0.63;;;6.10;99.90;;;;;;5099420;28;20020;-79
2023/12/21 01:09:40;;;;;;;2.73;0.70;;;6.10;99.90;;;;;;5099210;28;20039;-79
2023/12/21 01:12:07;;;;;;;1.53;0.77;;;6.20;99.90;;;;;;5098892;28;20042;-79
2023/12/21 01:14:33;;;;;;;3.13;0.60;;;6.20;99.90;;;;;;5117353;28;20020;-79
2023/12/21 01:16:58;;;;;;;1.97;0.63;;;6.10;99.90;;;;;;5116827;28;20473;-79
2023/12/21 01:19:24;;;;;;;1.00;0.53;;;6.10;99.90;;;;;;5099450;28;20028;-79
2023/12/21 01:21:50;;;;;;;2.30;0.60;;;6.10;99.90;;;;;;5116821;28;20024;-80
2023/12/21 01:24:15;;;;;;;0.87;0.50;;;6.20;99.90;;;;;;5099713;28;20030;-79
2023/12/21 01:26:42;;;;;;;1.17;0.63;;;6.20;99.90;;;;;;5099248;28;20115;-79
2023/12/21 01:29:08;;;;;;;1.07;0.50;;;6.20;99.90;;;;;;5098359;28;20119;-79
2023/12/21 01:31:33;;;;;;;4.70;0.70;;;6.20;99.90;;;;;;5098505;28;20063;-79
2023/12/21 01:34:01;;;;;;;1.47;0.50;;;6.20;99.90;;;;;;5097960;28;20024;-79
2023/12/21 01:36:27;;;;;;;0.60;0.50;;;6.20;99.90;;;;;;5098979;28;20024;-79
2023/12/21 01:38:52;;;;;;;3.20;0.63;;;6.20;99.90;;;;;;5116365;28;20028;-79
2023/12/21 01:41:18;;;;;;;0.90;0.60;;;6.30;99.90;;;;;;5098460;28;20043;-79
2023/12/21 01:43:44;;;;;;;1.00;0.50;;;6.20;99.90;;;;;;5098504;28;20059;-79
2023/12/21 01:46:10;;;;;;;2.90;0.57;;;6.20;99.90;;;;;;5098678;28;20066;-78
2023/12/21 01:48:36;;;;;;;3.87;0.47;;;6.30;99.90;;;;;;5098875;28;20150;-79
2023/12/21 01:51:04;;;;;;;1.13;0.50;;;6.30;99.90;;;;;;5098365;28;20062;-80
2023/12/21 01:53:30;;;;;;;1.60;0.80;;;6.30;99.90;;;;;;5098507;28;20414;-79
2023/12/21 01:55:56;;;;;;;1.20;0.50;;;6.30;99.90;;;;;;5098288;28;20055;-80
2023/12/21 01:58:23;;;;;;;1.07;0.50;;;6.30;99.90;;;;;;5098617;28;20035;-79
2023/12/21 02:00:49;;;;;;;1.20;0.60;;;6.30;99.90;;;;;;5098005;28;20023;-80
2023/12/21 02:03:16;;;;;;;1.17;0.37;;;6.30;99.90;;;;;;5116411;28;20035;-80
2023/12/21 02:05:42;;;;;;;1.23;0.60;;;6.30;99.90;;;;;;5098383;28;20400;-79
2023/12/21 02:08:08;;;;;;;1.13;0.50;;;6.30;99.90;;;;;;5097943;28;20028;-79
2023/12/21 02:10:33;;;;;;;2.23;0.40;;;6.30;99.90;;;;;;5098663;28;20035;-81
2023/12/21 02:12:59;;;;;;;0.80;0.50;;;6.30;99.90;;;;;;5097906;28;20407;-79
2023/12/21 02:15:25;;;;;;;0.63;0.47;;;6.30;99.90;;;;;;5098217;28;20055;-79
2023/12/21 02:17:52;;;;;;;2.37;0.73;;;6.30;99.90;;;;;;5097680;28;20027;-79
2023/12/21 02:20:19;;;;;;;2.10;0.60;;;6.30;99.90;;;;;;5116124;28;20479;-79
2023/12/21 02:22:47;;;;;;;0.50;0.40;;;6.40;99.90;;;;;;5098235;28;20047;-79
2023/12/21 02:25:14;;;;;;;1.20;0.40;;;6.40;99.90;;;;;;5097896;28;20452;-79
2023/12/21 02:27:39;;;;;;;1.30;0.47;;;6.40;99.90;;;;;;5097931;28;20024;-79
2023/12/21 02:30:05;;;;;;;3.13;0.40;;;6.40;99.90;;;;;;5097570;28;20055;-79
2023/12/21 02:32:31;;;;;;;1.10;0.43;;;6.40;99.90;;;;;;5098107;28;20047;-79
2023/12/21 02:34:57;;;;;;;0.90;0.43;;;6.40;99.90;;;;;;5115423;28;20031;-79
2023/12/21 02:37:22;;;;;;;0.90;0.60;;;6.40;99.90;;;;;;5097859;28;20027;-79
2023/12/21 02:39:48;;;;;;;1.03;0.33;;;6.30;99.90;;;;;;5097022;28;20024;-80
2023/12/21 02:42:14;;;;;;;1.63;0.60;;;6.30;99.90;;;;;;5097687;28;20028;-79
2023/12/21 02:44:39;;;;;;;0.60;0.30;;;6.30;99.90;;;;;;5097819;28;20049;-79
2023/12/21 02:47:05;;;;;;;0.87;0.30;;;6.30;99.90;;;;;;5115280;28;20059;-79
2023/12/21 02:49:30;;;;;;;0.90;0.40;;;6.30;99.90;;;;;;5097560;28;20032;-79
2023/12/21 02:51:56;;;;;;;0.40;0.30;;;6.30;99.90;;;;;;5097164;28;20027;-79
2023/12/21 02:54:21;;;;;;;0.43;0.40;;;6.40;99.90;;;;;;5115582;28;20384;-79
2023/12/21 02:56:47;;;;;;;0.30;0.20;;;6.30;99.90;;;;;;5097290;28;20037;-79
2023/12/21 02:59:13;;;;;;;1.20;0.67;;;6.40;99.90;;;;;;5114346;28;20102;-79
2023/12/21 03:01:42;;;;;;;3.13;0.60;;;6.30;99.90;;;;;;5115382;28;20028;-79
2023/12/21 03:04:09;;;;;;;0.60;0.30;;;6.30;99.90;;;;;;5096885;28;20038;-79
2023/12/21 03:06:35;;;;;;;1.00;0.40;;;6.30;99.90;;;;;;5097278;28;20020;-79
2023/12/21 03:09:00;;;;;;;2.03;0.20;;;6.30;99.90;;;;;;5096940;28;20104;-79
2023/12/21 03:11:26;;;;;;;1.80;0.30;;;6.40;99.90;;;;;;5096774;28;20096;-79
2023/12/21 03:13:52;;;;;;;1.33;0.30;;;6.40;99.90;;;;;;5096599;28;20031;-79
2023/12/21 03:16:18;;;;;;;0.40;0.30;;;6.40;99.90;;;;;;5096855;28;20027;-79
2023/12/21 03:18:46;;;;;;;1.70;0.30;;;6.40;99.90;;;;;;5097192;28;20085;-78
2023/12/21 03:21:11;;;;;;;0.53;0.30;;;6.40;99.90;;;;;;5096437;28;20023;-79
2023/12/21 03:23:39;;;;;;;0.30;0.27;;;6.40;99.90;;;;;;5096808;28;20031;-80
2023/12/21 03:26:04;;;;;;;1.30;0.30;;;6.40;99.90;;;;;;5096560;28;20028;-80
2023/12/21 03:28:30;;;;;;;0.40;0.30;;;6.40;99.90;;;;;;5096619;28;20499;-79
2023/12/21 03:30:56;;;;;;;1.13;0.30;;;6.50;99.90;;;;;;5096469;28;20027;-80
2023/12/21 03:33:21;;;;;;;2.20;0.47;;;6.50;99.90;;;;;;5096364;28;20118;-79
2023/12/21 03:35:47;;;;;;;1.43;0.30;;;6.50;99.90;;;;;;5096816;28;20028;-79
2023/12/21 03:38:12;;;;;;;0.50;0.27;;;6.50;99.90;;;;;;5114231;28;20072;-79
2023/12/21 03:40:38;;;;;;;0.20;0.20;;;6.50;99.90;;;;;;5114515;28;20052;-79
2023/12/21 03:43:04;;;;;;;0.43;0.40;;;6.50;99.90;;;;;;5114437;28;20072;-79
2023/12/21 03:45:29;;;;;;;0.38;0.28;;;6.50;99.90;;;;;;5096548;28;20380;-79
2023/12/21 03:47:55;;;;;;;1.80;0.20;;;6.50;99.90;;;;;;5096154;28;20027;-80
2023/12/21 03:50:20;;;;;;;1.37;0.30;;;6.50;99.90;;;;;;5097019;28;20040;-80
2023/12/21 03:52:46;;;;;;;0.45;0.20;;;6.60;99.90;;;;;;5096288;28;20020;-79
2023/12/21 03:55:11;;;;;;;0.83;0.30;;;6.60;99.90;;;;;;5096155;28;20387;-79
2023/12/21 03:57:37;;;;;;;1.60;0.50;;;6.50;99.90;;;;;;5096054;28;20465;-79
2023/12/21 04:00:03;;;;;;;0.93;0.30;;;6.50;99.90;;;;;;5095968;28;20062;-80
2023/12/21 04:02:29;;;;;;;1.13;0.30;;;6.50;99.90;;;;;;5096476;28;20135;-79
2023/12/21 04:04:54;;;;;;;0.43;0.30;;;6.50;99.90;;;;;;5095854;28;20496;-80
2023/12/21 04:07:20;;;;;;;0.50;0.20;;;6.50;99.90;;;;;;5114481;28;20088;-79
2023/12/21 04:09:45;;;;;;;0.90;0.20;;;6.50;99.90;;;;;;5113435;28;20075;-78
2023/12/21 04:12:11;;;;;;;0.52;0.22;;;6.50;99.90;;;;;;5113783;28;20434;-79
2023/12/21 04:14:36;;;;;;;1.30;0.30;;;6.60;99.90;;;;;;5114233;28;20067;-79
2023/12/21 04:17:02;;;;;;;0.47;0.20;;;6.60;99.90;;;;;;5095763;28;20464;-79
2023/12/21 04:19:27;;;;;;;0.40;0.20;;;6.60;99.90;;;;;;5096270;28;20110;-79
2023/12/21 04:21:53;;;;;;;0.27;0.20;;;6.60;99.90;;;;;;5096159;28;20034;-79
2023/12/21 04:24:19;;;;;;;0.30;0.30;;;6.60;99.90;;;;;;5096051;28;20019;-79
2023/12/21 04:26:45;;;;;;;2.35;0.40;;;6.60;99.90;;;;;;5096185;28;20034;-79
2023/12/21 04:29:10;;;;;;;0.35;0.20;;;6.70;99.90;;;;;;5095708;28;20036;-79
2023/12/21 04:31:41;;;;;;;1.03;0.30;;;6.70;99.90;;;;;;5096182;28;20027;-79
2023/12/21 04:34:06;;;;;;;0.35;0.28;;;6.70;99.90;;;;;;5095569;28;20055;-80
2023/12/21 04:36:32;;;;;;;0.22;0.20;;;6.70;99.90;;;;;;5095930;28;20031;-80
2023/12/21 04:38:57;;;;;;;1.60;0.30;;;6.70;99.90;;;;;;5095595;28;20118;-80
2023/12/21 04:41:23;;;;;;;1.73;0.40;;;6.70;99.90;;;;;;5092300;28;20051;-79
2023/12/21 04:43:48;;;;;;;0.93;0.20;;;6.70;99.90;;;;;;5092386;28;20025;-79
2023/12/21 04:46:14;;;;;;;0.20;0.20;;;6.70;99.90;;;;;;5093188;28;20107;-80
2023/12/21 04:48:39;;;;;;;0.83;0.30;;;6.70;99.90;;;;;;5092346;28;20032;-79
2023/12/21 04:51:05;;;;;;;0.40;0.20;;;6.70;99.90;;;;;;5092090;28;20024;-80
2023/12/21 04:53:31;;;;;;;0.43;0.10;;;6.80;99.90;;;;;;5092843;28;20035;-79
2023/12/21 04:55:56;;;;;;;0.70;0.20;;;6.80;99.90;;;;;;5092010;28;20051;-80
2023/12/21 04:58:22;;;;;;;0.30;0.20;;;6.80;99.90;;;;;;5092282;28;20024;-80
2023/12/21 05:00:50;;;;;;;0.43;0.13;;;6.80;99.90;;;;;;5092159;28;20028;-80
2023/12/21 05:03:19;;;;;;;2.17;0.20;;;6.80;99.90;;;;;;5091775;28;20362;-80
2023/12/21 05:05:46;;;;;;;1.05;0.20;;;6.80;99.90;;;;;;5092331;28;20031;-79
2023/12/21 05:08:12;;;;;;;1.20;0.20;;;6.80;99.90;;;;;;5091731;28;20024;-80
2023/12/21 05:10:38;;;;;;;1.55;0.20;;;6.80;99.90;;;;;;5092019;28;20050;-80
2023/12/21 05:13:04;;;;;;;1.23;0.20;;;6.80;99.90;;;;;;5093039;28;20035;-80
2023/12/21 05:15:29;;;;;;;1.15;0.20;;;6.80;99.90;;;;;;5092293;28;20028;-80
2023/12/21 05:17:55;;;;;;;1.05;0.20;;;6.80;99.90;;;;;;5092309;28;20020;-79
2023/12/21 05:20:20;;;;;;;0.20;0.20;;;6.80;99.90;;;;;;5091916;28;20035;-80
2023/12/21 05:22:46;;;;;;;0.13;0.13;;;6.80;99.90;;;;;;5097021;28;20077;-80
2023/12/21 05:25:11;;;;;;;0.55;0.20;;;6.80;99.90;;;;;;5095547;28;20029;-80
2023/12/21 05:27:37;;;;;;;0.25;0.20;;;6.80;99.90;;;;;;5095685;28;20032;-80
2023/12/21 05:30:03;;;;;;;0.30;0.30;;;6.80;99.90;;;;;;5095391;28;20127;-80
2023/12/21 05:32:30;;;;;;;2.38;0.28;;;6.70;99.90;;;;;;5095685;28;20024;-80
2023/12/21 05:34:56;;;;;;;0.35;0.15;;;6.70;99.90;;;;;;5095654;28;20024;-80
2023/12/21 05:37:21;;;;;;;0.20;0.20;;;6.70;99.90;;;;;;5096352;28;20383;-80
2023/12/21 05:39:48;;;;;;;0.17;0.17;;;6.70;99.90;;;;;;5095711;28;20036;-79
2023/12/21 05:42:14;;;;;;;1.23;0.17;;;6.70;99.90;;;;;;5116391;28;20026;-80
2023/12/21 05:44:40;;;;;;;0.40;0.20;;;6.70;99.90;;;;;;5116950;28;20517;-79
2023/12/21 05:47:05;;;;;;;0.10;0.10;;;6.70;99.90;;;;;;5098132;28;20019;-80
2023/12/21 05:49:31;;;;;;;0.30;0.30;;;6.70;99.90;;;;;;5098505;28;20035;-80
2023/12/21 05:51:56;;;;;;;0.20;0.20;;;6.70;99.90;;;;;;5098572;28;20031;-80
2023/12/21 05:54:22;;;;;;;0.25;0.20;;;6.70;99.90;;;;;;5098014;28;20020;-80
2023/12/21 05:56:48;;;;;;;0.43;0.20;;;6.70;99.90;;;;;;5116693;28;20027;-80
2023/12/21 05:59:13;;;;;;;0.40;0.20;;;6.70;99.90;;;;;;5098147;28;20136;-80
2023/12/21 06:01:41;;;;;;;0.50;0.20;;;6.70;99.90;;;;;;5098653;28;20024;-80
2023/12/21 06:04:06;;;;;;;0.32;0.20;;;6.70;99.90;;;;;;5097999;28;20024;-80
2023/12/21 06:06:32;;;;;;;0.15;0.13;;;6.70;99.90;;;;;;5116502;28;20144;-80
2023/12/21 06:08:58;;;;;;;0.47;0.37;;;6.70;99.90;;;;;;5098245;28;20121;-79
2023/12/21 06:11:23;;;;;;;0.20;0.10;;;6.70;99.90;;;;;;5098015;28;20027;-80
2023/12/21 06:13:49;;;;;;;0.63;0.25;;;6.70;99.90;;;;;;5098277;28;20120;-79
2023/12/21 06:16:14;;;;;;;0.40;0.23;;;6.70;99.90;;;;;;5097650;28;20027;-80
2023/12/21 06:18:41;;;;;;;0.30;0.20;;;6.70;99.90;;;;;;5098045;28;20032;-80
2023/12/21 06:21:06;;;;;;;0.20;0.10;;;6.80;99.90;;;;;;5097622;28;20118;-80
2023/12/21 06:23:32;;;;;;;0.10;0.10;;;6.80;99.90;;;;;;5098009;28;20051;-80
2023/12/21 06:25:57;;;;;;;0.20;0.15;;;6.80;99.90;;;;;;5098182;28;20486;-79
2023/12/21 06:28:23;;;;;;;0.30;0.15;;;6.80;99.90;;;;;;5097693;28;20373;-79
2023/12/21 06:30:48;;;;;;;0.25;0.10;;;6.80;99.90;;;;;;5116165;28;20020;-79
2023/12/21 06:33:14;;;;;;;0.20;0.20;;;6.90;99.90;;;;;;5096587;28;20023;-80
2023/12/21 06:35:40;;;;;;;0.37;0.13;;;6.90;99.90;;;;;;5116090;28;20057;-79
2023/12/21 06:38:06;;;;;;;0.10;0.10;;;6.90;99.90;;;;;;5097376;28;20058;-80
2023/12/21 06:40:32;;;;;;;0.50;0.10;;;6.90;99.90;;;;;;5097427;28;20082;-80
2023/12/21 06:42:58;;;;;;;0.50;0.30;;;6.90;99.90;;;;;;5115925;28;20055;-79
2023/12/21 06:45:23;;;;;;;0.20;0.20;;;6.90;99.90;;;;;;5097245;28;20452;-80
2023/12/21 06:47:49;;;;;;;0.10;0.10;;;6.90;99.90;;;;;;5097411;28;20024;-79
2023/12/21 06:50:15;;;;;;;0.10;0.10;;;6.90;99.90;;;;;;5097371;28;20055;-79
2023/12/21 06:52:40;;;;;;;0.63;0.10;;;6.90;99.90;;;;;;5097537;28;20027;-78
2023/12/21 06:55:07;;;;;;;0.43;0.20;;;6.90;99.90;;;;;;5097058;28;20110;-80
2023/12/21 06:57:33;;;;;;;0.87;0.10;;;6.90;99.90;;;;;;5115539;28;20085;-80
2023/12/21 06:59:59;;;;;;;0.10;0.10;;;7.00;99.90;;;;;;5112207;28;20024;-80
2023/12/21 07:02:24;;;;;;;1.40;0.32;;;7.00;99.90;;;;;;5083579;28;20038;-80
2023/12/21 07:04:50;;;;;;;0.52;0.20;;;7.00;99.90;;;;;;5107513;28;20031;-79
2023/12/21 07:07:15;;;;;;;0.28;0.20;;;7.00;99.90;;;;;;5114392;28;20024;-80
2023/12/21 07:09:41;;;;;;;0.40;0.20;;;7.00;99.90;;;;;;5096014;28;20070;-79
2023/12/21 07:12:07;;;;;;;0.22;0.20;;;7.00;99.90;;;;;;5095723;28;20151;-78
2023/12/21 07:14:32;;;;;;;0.20;0.20;;;7.10;99.90;;;;;;5110765;28;20403;-83
2023/12/21 07:16:58;;;;;;;0.10;0.10;;;7.10;99.90;;;;;;5114326;28;20057;-79
2023/12/21 07:19:23;;;;;;;0.10;0.10;;;7.10;99.90;;;;;;5096779;28;20060;-80
2023/12/21 07:21:49;;;;;;;0.60;0.30;;;7.10;99.90;;;;;;5096135;28;20472;-76
2023/12/21 07:24:14;;;;;;;2.47;0.20;;;7.30;99.90;;;;;;5096078;28;20020;-80
2023/12/21 07:26:40;;;;;;;0.40;0.10;;;7.20;99.90;;;;;;5094904;28;20532;-80
2023/12/21 07:29:06;;;;;;;1.98;0.28;;;7.20;99.90;;;;;;5096782;28;20032;-80
2023/12/21 07:31:31;;;;;;;0.52;0.20;;;7.20;99.90;;;;;;5114665;28;20453;-82
2023/12/21 07:33:57;;;;;;;0.55;0.20;;;7.20;99.90;;;;;;5096221;28;20384;-82
2023/12/21 07:36:22;;;;;;;0.28;0.20;;;7.20;99.90;;;;;;5095616;28;20019;-80
2023/12/21 07:38:48;;;;;;;0.25;0.10;;;7.20;99.90;;;;;;5114164;28;20027;-81
2023/12/21 07:41:14;;;;;;;0.28;0.22;;;7.20;99.90;;;;;;5113704;28;20051;-81
2023/12/21 07:43:41;;;;;;;0.32;0.15;;;7.30;99.90;;;;;;5095735;28;20034;-81
2023/12/21 07:46:08;;;;;;;0.20;0.10;;;7.20;99.90;;;;;;5095483;28;20032;-82
2023/12/21 07:48:34;;;;;;;0.10;0.10;;;7.20;99.90;;;;;;5095649;28;20043;-80
2023/12/21 07:50:59;;;;;;;0.28;0.28;;;7.30;99.90;;;;;;5113999;28;20457;-81
2023/12/21 07:53:25;;;;;;;0.47;0.30;;;7.30;99.90;;;;;;5095159;28;20073;-81
2023/12/21 07:55:51;;;;;;;0.20;0.20;;;7.20;99.90;;;;;;5095539;28;20445;-82
2023/12/21 07:58:16;;;;;;;0.38;0.20;;;7.30;99.90;;;;;;5094770;28;20031;-81
2023/12/21 08:00:42;;;;;;;0.13;0.10;;;7.30;99.90;;;;;;5095693;28;20027;-81
2023/12/21 08:03:08;;;;;;;0.10;0.10;;;7.30;99.90;;;;;;5095614;28;20028;-82
2023/12/21 08:05:33;;;;;;;0.20;0.10;;;7.30;99.90;;;;;;5095474;28;20035;-81
2023/12/21 08:07:59;;;;;;;0.88;0.20;;;7.30;99.90;;;;;;5095587;28;20020;-82
2023/12/21 08:10:25;;;;;;;0.25;0.25;;;7.40;99.90;;;;;;5094076;28;20040;-81
2023/12/21 08:12:50;;;;;;;0.65;0.20;;;7.40;99.90;;;;;;5095500;28;20063;-81
2023/12/21 08:15:16;;;;;;;2.25;0.17;;;7.40;99.90;;;;;;5094805;28;20031;-81
2023/12/21 08:17:43;;;;;;;0.17;0.17;;;7.40;99.90;;;;;;5095094;28;20026;-81
2023/12/21 08:20:12;;;;;;;0.65;0.20;;;7.40;99.90;;;;;;5112840;28;20023;-81
2023/12/21 08:22:38;;;;;;;0.20;0.20;;;7.40;99.90;;;;;;5094742;28;20030;-82
2023/12/21 08:25:03;;;;;;;0.68;0.20;;;7.50;99.90;;;;;;5113417;28;20027;-81
2023/12/21 08:27:29;;;;;;;0.28;0.20;;;7.50;99.90;;;;;;5112853;28;20541;-82
2023/12/21 08:29:55;;;;;;;0.30;0.30;;;7.50;99.90;;;;;;5094514;28;20039;-82
2023/12/21 08:32:20;;;;;;;0.47;0.20;;;7.50;99.90;;;;;;5093985;28;20107;-82
2023/12/21 08:34:46;;;;;;;1.10;0.10;;;7.60;99.90;;;;;;5113056;28;20387;-83
2023/12/21 08:37:14;;;;;;;0.20;0.20;;;7.60;99.90;;;;;;5094039;28;20133;-82
2023/12/21 08:39:40;;;;;;;0.20;0.20;;;7.50;99.90;;;;;;5075718;28;20024;-81
2023/12/21 08:42:08;;;;;;;1.45;0.20;;;7.60;99.90;;;;;;5093057;28;20054;-81
2023/12/21 08:44:35;;;;;;;0.70;0.20;;;7.60;99.90;;;;;;5075333;28;20428;-80
2023/12/21 08:47:00;;;;;;;0.10;0.10;;;7.60;99.90;;;;;;5075768;28;20480;-80
2023/12/21 08:49:26;;;;;;;0.10;0.10;;;7.60;99.90;;;;;;5075098;28;20029;-80
2023/12/21 08:51:53;;;;;;;0.40;0.20;;;7.60;99.90;;;;;;5093502;28;20027;-80
2023/12/21 08:54:19;;;;;;;0.10;0.10;;;7.70;99.90;;;;;;5092978;28;20016;-81
2023/12/21 08:56:45;;;;;;;0.22;0.20;;;7.70;99.90;;;;;;5078015;28;20035;-80
2023/12/21 08:59:10;;;;;;;0.20;0.10;;;7.70;99.90;;;;;;5079349;28;20028;-85
2023/12/21 09:01:37;;;;;;;0.22;0.22;;;7.70;99.90;;;;;;5079238;28;20024;-81
2023/12/21 09:04:04;;;;;;;0.10;0.10;;;7.70;99.90;;;;;;5097337;28;20084;-79
2023/12/21 09:06:31;;;;;;;0.15;0.15;;;7.70;99.90;;;;;;5078613;28;20028;-79
2023/12/21 09:08:57;;;;;;;0.10;0.10;;;7.70;99.90;;;;;;5078987;28;20032;-79
2023/12/21 09:11:23;;;;;;;4.68;0.57;;;7.70;99.90;;;;;;5078285;28;20062;-79
2023/12/21 09:13:48;;;;;;;1.23;0.20;;;7.70;99.90;;;;;;5096663;28;20052;-79
2023/12/21 09:16:17;;;;;;;0.20;0.20;;;7.70;99.90;;;;;;5078304;28;20024;-83
2023/12/21 09:18:46;;;;;;;0.30;0.20;;;7.70;99.90;;;;;;5096858;28;20025;-79
2023/12/21 09:21:12;;;;;;;0.55;0.20;;;7.70;99.90;;;;;;5096248;28;20020;-81
2023/12/21 09:23:39;;;;;;;1.23;0.20;;;7.70;99.90;;;;;;5078832;28;20024;-79
2023/12/21 09:26:08;;;;;;;0.20;0.20;;;7.70;99.90;;;;;;5096570;28;20473;-79
2023/12/21 09:28:36;;;;;;;2.03;0.10;;;7.70;99.90;;;;;;5078467;28;20056;-79
2023/12/21 09:31:03;;;;;;;0.93;0.17;;;7.70;99.90;;;;;;5078620;28;20503;-79
2023/12/21 09:33:31;;;;;;;1.35;0.70;;;7.70;99.90;;;;;;5078163;28;20123;-80
2023/12/21 09:35:58;;;;;;;1.10;0.60;;;7.70;99.90;;;;;;5078479;28;20477;-80
2023/12/21 09:38:24;;;;;;;0.20;0.20;;;7.70;99.90;;;;;;5096038;28;20119;-80
2023/12/21 09:40:50;;;;;;;0.57;0.30;;;7.70;99.90;;;;;;5074997;28;20098;-80
2023/12/21 09:43:17;;;;;;;1.85;0.30;;;7.70;99.90;;;;;;5075891;28;20040;-80
2023/12/21 09:45:46;;;;;;;0.20;0.20;;;7.70;99.90;;;;;;5075090;28;20028;-77
2023/12/21 09:48:14;;;;;;;0.45;0.20;;;7.70;99.90;;;;;;5076177;28;20373;-76
2023/12/21 09:50:44;;;;;;;0.80;0.30;;;7.70;99.90;;;;;;5075168;28;20029;-77
2023/12/21 09:53:13;;;;;;;2.35;0.30;;;7.80;99.90;;;;;;5075216;28;20040;-77
2023/12/21 09:55:43;;;;;;;0.30;0.20;;;7.80;99.90;;;;;;5075273;28;20036;-79
2023/12/21 09:58:11;;;;;;;0.20;0.20;;;7.90;99.90;;;;;;5075019;28;20127;-79
2023/12/21 10:00:37;;;;;;;0.20;0.20;;;7.80;99.90;;;;;;5074491;28;20650;-79
2023/12/21 10:03:04;;;;;;;1.40;0.40;;;7.90;99.90;;;;;;5075036;28;20078;-79
2023/12/21 10:05:30;;;;;;;1.98;0.40;;;7.90;99.90;;;;;;5075453;28;20038;-79
2023/12/21 10:07:57;;;;;;;1.83;0.60;;;7.90;99.90;;;;;;5073827;28;20028;-79
2023/12/21 10:10:22;;;;;;;0.65;0.32;;;8.00;99.90;;;;;;5074126;28;20090;-79
2023/12/21 10:12:48;;;;;;;1.20;0.57;;;8.00;99.90;;;;;;5075799;28;20473;-79
2023/12/21 10:15:13;;;;;;;2.45;0.63;;;8.00;99.90;;;;;;5074398;28;20070;-79
2023/12/21 10:17:39;;;;;;;1.70;0.68;;;8.00;99.90;;;;;;5074282;28;20032;-79
2023/12/21 10:20:06;;;;;;;2.63;0.80;;;8.00;99.90;;;;;;5074437;28;20067;-79
2023/12/21 10:22:32;;;;;;;2.05;0.60;;;8.00;99.90;;;;;;5074108;28;20035;-79
2023/12/21 10:24:59;;;;;;;0.98;0.38;;;8.00;99.90;;;;;;5074415;28;20036;-79
2023/12/21 10:27:26;;;;;;;0.68;0.30;;;8.00;99.90;;;;;;5073898;28;20032;-79
2023/12/21 10:29:56;;;;;;;0.30;0.30;;;8.00;99.90;;;;;;5074213;28;20067;-79
2023/12/21 10:32:22;;;;;;;0.32;0.20;;;8.00;99.90;;;;;;5073712;28;20028;-80
2023/12/21 10:34:48;;;;;;;0.40;0.20;;;8.00;99.90;;;;;;5074013;28;20025;-78
2023/12/21 10:37:17;;;;;;;1.33;0.60;;;8.00;99.90;;;;;;5074067;28;20029;-79
2023/12/21 10:39:44;;;;;;;0.75;0.30;;;8.10;99.90;;;;;;5074019;28;20547;-79
2023/12/21 10:42:09;;;;;;;0.32;0.15;;;8.10;99.90;;;;;;5095242;28;20056;-79
2023/12/21 10:44:35;;;;;;;0.20;0.20;;;8.10;99.90;;;;;;5076811;28;20492;-79
2023/12/21 10:47:01;;;;;;;0.50;0.40;;;8.10;99.90;;;;;;5077202;28;20028;-79
2023/12/21 10:49:27;;;;;;;1.05;0.25;;;8.10;99.90;;;;;;5076739;28;20089;-79
2023/12/21 10:51:55;;;;;;;0.28;0.22;;;8.20;99.90;;;;;;5077065;28;20046;-79
2023/12/21 10:54:22;;;;;;;0.28;0.13;;;8.20;99.90;;;;;;5076791;28;20453;-79
2023/12/21 10:56:48;;;;;;;0.47;0.30;;;8.20;99.90;;;;;;5077483;28;20118;-79
2023/12/21 10:59:14;;;;;;;2.15;0.25;;;8.30;99.90;;;;;;5095010;28;20060;-79
2023/12/21 11:01:40;;;;;;;0.20;0.20;;;8.20;99.90;;;;;;5076564;28;20024;-79
2023/12/21 11:04:08;;;;;;;0.10;0.10;;;8.30;99.90;;;;;;5077205;28;20096;-79
2023/12/21 11:06:33;;;;;;;0.98;0.30;;;8.30;99.90;;;;;;5076447;28;20119;-79
2023/12/21 11:09:00;;;;;;;0.90;0.22;;;8.30;99.90;;;;;;5076844;28;20082;-79
2023/12/21 11:11:26;;;;;;;0.65;0.32;;;8.30;99.90;;;;;;5094471;28;20081;-80
2023/12/21 11:13:56;;;;;;;0.20;0.20;;;8.30;99.90;;;;;;5076420;28;20548;-80
2023/12/21 11:16:45;;;;;;;0.35;0.17;;;8.30;99.90;;;;;;5094246;28;20020;-79
2023/12/21 11:19:14;;;;;;;0.30;0.20;;;8.30;99.90;;;;;;5076326;28;20046;-79
2023/12/21 11:37:28;;;;;;;1.63;0.47;;;8.30;99.90;;;;;;5278606;23;20058;-75
2023/12/21 11:39:59;;;;;;;0.57;0.40;;;8.30;99.90;;;;;;4957258;28;20126;-75
2023/12/21 11:42:36;;;;;;;0.32;0.32;;;8.30;99.90;;;;;;4974578;28;20142;-75
2023/12/21 11:45:09;;;;;;;0.38;0.30;;;8.30;99.90;;;;;;4957362;28;20034;-75
2023/12/21 11:47:35;;;;;;;0.50;0.20;;;8.30;99.90;;;;;;4957392;28;20117;-75
2023/12/21 11:50:08;;;;;;;0.40;0.20;;;8.30;99.90;;;;;;4974212;28;20034;-75
2023/12/21 11:52:34;;;;;;;0.55;0.30;;;8.30;99.90;;;;;;4957282;28;20031;-75
2023/12/21 11:55:00;;;;;;;0.43;0.20;;;8.40;99.90;;;;;;4956634;28;20486;-75
2023/12/21 11:57:29;;;;;;;0.20;0.20;;;8.40;99.90;;;;;;4974531;28;20078;-75
2023/12/21 12:00:17;;;;;;;0.68;0.30;;;8.40;99.90;;;;;;4973928;28;20030;-75
2023/12/21 12:02:48;;;;;;;0.10;0.10;;;8.40;99.90;;;;;;4974032;28;20030;-75
2023/12/21 12:05:22;;;;;;;1.05;0.20;;;8.40;99.90;;;;;;4956732;28;20125;-75
2023/12/21 12:07:48;;;;;;;0.28;0.28;;;8.40;99.90;;;;;;4973521;28;20086;-74
2023/12/21 12:10:14;;;;;;;0.50;0.20;;;8.40;99.90;;;;;;4974060;28;20038;-74
2023/12/21 12:12:41;;;;;;;0.50;0.22;;;8.40;99.90;;;;;;4973627;28;20035;-75
2023/12/21 12:15:07;;;;;;;0.68;0.32;;;8.40;99.90;;;;;;4974100;28;20038;-75
2023/12/21 12:17:42;;;;;;;0.30;0.22;;;8.40;99.90;;;;;;4974084;28;20101;-75
2023/12/21 12:20:11;;;;;;;0.88;0.28;;;8.40;99.90;;;;;;4956967;28;20463;-75
2023/12/21 12:22:37;;;;;;;0.82;0.30;;;8.40;99.90;;;;;;4973758;28;20138;-89
2023/12/21 12:25:06;;;;;;;0.20;0.20;;;8.40;99.90;;;;;;4956661;28;20580;-75
2023/12/21 12:27:32;;;;;;;0.75;0.40;;;8.30;99.90;;;;;;4956761;28;20065;-75
2023/12/21 12:29:58;;;;;;;2.00;0.40;;;8.30;99.90;;;;;;4973245;28;20035;-75
2023/12/21 12:32:26;;;;;;;0.43;0.30;;;8.30;99.90;;;;;;4960548;28;20039;-75
2023/12/21 12:34:52;;;;;;;0.30;0.30;;;8.30;99.90;;;;;;4977573;28;20027;-75
2023/12/21 12:37:20;;;;;;;0.22;0.20;;;8.30;99.90;;;;;;4977589;28;20109;-75
2023/12/21 12:39:47;;;;;;;1.08;0.20;;;8.30;99.90;;;;;;4977485;28;20176;-75
2023/12/21 12:42:13;;;;;;;0.20;0.20;;;8.30;99.90;;;;;;4960577;28;20027;-75
2023/12/21 12:44:39;;;;;;;1.13;0.20;;;8.30;99.90;;;;;;4977376;28;20368;-88
2023/12/21 12:47:07;;;;;;;0.30;0.20;;;8.30;99.90;;;;;;4960628;28;20034;-75
2023/12/21 12:49:35;;;;;;;0.30;0.22;;;8.30;99.90;;;;;;4960315;28;20041;-75
2023/12/21 12:52:01;;;;;;;0.30;0.30;;;8.30;99.90;;;;;;4976139;28;20031;-75
2023/12/21 12:54:33;;;;;;;0.22;0.20;;;8.30;99.90;;;;;;4977718;28;20482;-75
2023/12/21 12:57:03;;;;;;;0.30;0.30;;;8.30;99.90;;;;;;4959811;28;20105;-75
2023/12/21 12:59:38;;;;;;;0.55;0.30;;;8.30;99.90;;;;;;4960429;28;20053;-75
2023/12/21 13:02:04;;;;;;;0.47;0.30;;;8.30;99.90;;;;;;4959774;28;20482;-75
2023/12/21 13:04:30;;;;;;;0.32;0.20;;;8.30;99.90;;;;;;4960265;28;20467;-75
2023/12/21 13:06:55;;;;;;;0.50;0.30;;;8.30;99.90;;;;;;4977219;28;20038;-75
2023/12/21 13:09:21;;;;;;;0.35;0.20;;;8.30;99.90;;;;;;4960016;28;20035;-75